El Golea Airport

DAUE · 阿尔及利亚

METAR DAUE · El Golea Airport

23 六月 21:00 LT
38m
罗盘
风向 的 风向 010° El Golea Airport 18/36
风: 11 kt, 4 beaufort

11 kt

2 kt
改变
0 ft 1.000 2.000 3.000 4.000 5.000
没有观察到明显的云
METAR DAUE 232000Z 01011KT 4000 HZ NSC 36/06 Q1007

METAR El Golea Airport - DAUE/ELG

该字段位于阿尔及利亚中。 该机场位于纬度30,57728和经度2,86424。 该机场有2条跑道: 18/36 和 10/28. 本场的ICAO机场代码为DAUE。 该机场的IATA代码为ELG。 机场在Alger FIR中。

该航空气象观测是针对El Golea Airport在2024年6月23日 21:00, 当地时间进行的。

机场观察

风向为010°,速度为11 kt。

可见度为4 km。

有没有观察到明显的云。 没有观察到天花板。

当前天气为阴霾。 温度和风寒是36 °C。 露点为6 °C,相对湿度为16%。 海平面上的气压为1007 hPa (QNH)。

白天

今天,太阳从05:47升起,在19:54降落。 这适用于El Golea Airport,世界夏令时可能有所不同。 当地时间与世界标准时间之间的时差为+1 小时。 夏令时目前正在进行中。

公司介绍

我们没有关于这个机场的公司信息。

体会

到Vliegles.nl去找飞行课程,跳伞和其他飞行体验。 浏览页面,了解El Golea Airport附近所有可用的活动。 你也可以使用搜索功能来寻找你所在地附近的特定飞行课程、跳伞或其他飞行体验。

跑道

Id 标题 侧风 逆风 侧风 %
18/36 180°-360° 2 kt 11 kt 17 %
10/28 100°-280° 11 kt 100 %

逆风成分最大的方向会被突出显示,并用于横风计算。 这并不一定意味着这个方向在使用。

乌云

- NSC 没有观察到明显的云

温度 & 天气

天气 阴霾
温度 36 °C
露点 6 °C
相对湿度 16%
Kp-index 2 (0-9)

白天

日出
05:47 (8:09)
中午
12:50
日落
19:54

小工具

你想在你的网站上有一个关于El Golea Airport的当前航空天气(METAR)的小部件吗?

显示HTML代码
报告变更